sensor_id;sensor_type;location;lat;lon;timestamp;P1;durP1;ratioP1;P2;durP2;ratioP2
23163;SDS011;31429;42.674;23.350;2022-08-19T03:01:43;10.70;;;9.47;;
23163;SDS011;31429;42.674;23.350;2022-08-19T03:02:50;11.17;;;9.70;;
23163;SDS011;31429;42.674;23.350;2022-08-19T03:04:12;11.10;;;9.97;;
23163;SDS011;31429;42.674;23.350;2022-08-19T03:05:16;11.47;;;9.83;;
23163;SDS011;31429;42.674;23.350;2022-08-19T03:06:19;11.20;;;10.07;;
23163;SDS011;31429;42.674;23.350;2022-08-19T03:07:28;10.43;;;9.50;;
23163;SDS011;31429;42.674;23.350;2022-08-19T03:09:08;11.23;;;10.07;;
23163;SDS011;31429;42.674;23.350;2022-08-19T03:10:42;13.33;;;10.33;;
23163;SDS011;31429;42.674;23.350;2022-08-19T03:12:06;13.03;;;10.90;;
23163;SDS011;31429;42.674;23.350;2022-08-19T03:13:09;11.30;;;10.20;;
23163;SDS011;31429;42.674;23.350;2022-08-19T03:14:15;19.20;;;10.63;;
23163;SDS011;31429;42.674;23.350;2022-08-19T03:15:23;13.07;;;11.77;;
23163;SDS011;31429;42.674;23.350;2022-08-19T03:16:28;11.60;;;10.40;;
23163;SDS011;31429;42.674;23.350;2022-08-19T03:19:20;13.40;;;10.70;;
23163;SDS011;31429;42.674;23.350;2022-08-19T03:20:41;12.73;;;11.20;;
23163;SDS011;31429;42.674;23.350;2022-08-19T03:22:28;13.80;;;10.80;;
23163;SDS011;31429;42.674;23.350;2022-08-19T03:25:56;12.73;;;10.97;;
23163;SDS011;31429;42.674;23.350;2022-08-19T03:27:04;11.87;;;10.47;;
23163;SDS011;31429;42.674;23.350;2022-08-19T03:28:27;12.27;;;11.07;;
23163;SDS011;31429;42.674;23.350;2022-08-19T03:29:49;12.53;;;11.23;;
23163;SDS011;31429;42.674;23.350;2022-08-19T03:30:56;12.50;;;10.63;;
23163;SDS011;31429;42.674;23.350;2022-08-19T03:32:07;12.30;;;11.10;;
23163;SDS011;31429;42.674;23.350;2022-08-19T03:34:32;12.27;;;10.70;;
23163;SDS011;31429;42.674;23.350;2022-08-19T04:12:38;15.60;;;12.20;;
23163;SDS011;31429;42.674;23.350;2022-08-19T04:13:50;13.30;;;12.00;;
23163;SDS011;31429;42.674;23.350;2022-08-19T04:14:54;13.23;;;11.70;;
23163;SDS011;31429;42.674;23.350;2022-08-19T04:15:58;13.83;;;12.33;;
23163;SDS011;31429;42.674;23.350;2022-08-19T04:16:59;14.13;;;12.83;;
23163;SDS011;31429;42.674;23.350;2022-08-19T04:18:05;14.70;;;12.13;;
23163;SDS011;31429;42.674;23.350;2022-08-19T04:19:08;14.70;;;13.13;;
23163;SDS011;31429;42.674;23.350;2022-08-19T04:20:09;15.40;;;12.30;;
23163;SDS011;31429;42.674;23.350;2022-08-19T04:21:15;15.23;;;12.73;;
23163;SDS011;31429;42.674;23.350;2022-08-19T04:22:17;15.23;;;12.70;;
23163;SDS011;31429;42.674;23.350;2022-08-19T04:23:18;13.17;;;11.60;;
23163;SDS011;31429;42.674;23.350;2022-08-19T04:24:20;13.30;;;12.03;;
23163;SDS011;31429;42.674;23.350;2022-08-19T04:25:23;13.17;;;12.00;;
23163;SDS011;31429;42.674;23.350;2022-08-19T04:26:24;14.13;;;12.10;;
23163;SDS011;31429;42.674;23.350;2022-08-19T04:27:27;13.93;;;11.80;;
23163;SDS011;31429;42.674;23.350;2022-08-19T04:28:29;18.30;;;12.17;;
23163;SDS011;31429;42.674;23.350;2022-08-19T04:29:30;14.20;;;12.63;;
23163;SDS011;31429;42.674;23.350;2022-08-19T04:30:36;13.90;;;12.47;;
23163;SDS011;31429;42.674;23.350;2022-08-19T04:31:39;12.50;;;11.20;;
23163;SDS011;31429;42.674;23.350;2022-08-19T04:32:42;12.80;;;11.50;;
23163;SDS011;31429;42.674;23.350;2022-08-19T04:33:45;12.73;;;11.50;;
23163;SDS011;31429;42.674;23.350;2022-08-19T04:34:47;14.00;;;12.37;;
23163;SDS011;31429;42.674;23.350;2022-08-19T04:35:52;15.50;;;12.07;;
23163;SDS011;31429;42.674;23.350;2022-08-19T04:36:54;15.57;;;12.40;;
23163;SDS011;31429;42.674;23.350;2022-08-19T04:37:57;13.17;;;11.83;;
23163;SDS011;31429;42.674;23.350;2022-08-19T04:38:59;13.10;;;11.83;;
23163;SDS011;31429;42.674;23.350;2022-08-19T04:40:05;15.73;;;11.30;;
23163;SDS011;31429;42.674;23.350;2022-08-19T04:41:26;14.77;;;12.37;;
23163;SDS011;31429;42.674;23.350;2022-08-19T04:42:45;12.77;;;11.23;;
23163;SDS011;31429;42.674;23.350;2022-08-19T04:43:49;17.87;;;12.60;;
23163;SDS011;31429;42.674;23.350;2022-08-19T04:45:11;14.17;;;12.17;;
23163;SDS011;31429;42.674;23.350;2022-08-19T04:46:14;20.83;;;12.60;;
23163;SDS011;31429;42.674;23.350;2022-08-19T04:47:18;14.70;;;12.20;;
23163;SDS011;31429;42.674;23.350;2022-08-19T04:48:21;12.83;;;11.53;;
23163;SDS011;31429;42.674;23.350;2022-08-19T04:49:26;14.17;;;11.80;;
23163;SDS011;31429;42.674;23.350;2022-08-19T04:50:30;13.10;;;11.07;;
23163;SDS011;31429;42.674;23.350;2022-08-19T04:51:34;15.60;;;11.67;;
23163;SDS011;31429;42.674;23.350;2022-08-19T04:52:40;13.40;;;11.63;;
23163;SDS011;31429;42.674;23.350;2022-08-19T04:53:43;18.17;;;12.60;;
23163;SDS011;31429;42.674;23.350;2022-08-19T04:54:47;13.20;;;11.80;;
23163;SDS011;31429;42.674;23.350;2022-08-19T04:56:12;14.53;;;12.37;;
23163;SDS011;31429;42.674;23.350;2022-08-19T04:57:37;15.53;;;12.03;;
23163;SDS011;31429;42.674;23.350;2022-08-19T04:58:41;13.10;;;11.47;;
23163;SDS011;31429;42.674;23.350;2022-08-19T05:00:12;12.37;;;11.03;;
23163;SDS011;31429;42.674;23.350;2022-08-19T05:01:17;13.33;;;11.13;;
23163;SDS011;31429;42.674;23.350;2022-08-19T05:02:22;13.30;;;11.87;;
23163;SDS011;31429;42.674;23.350;2022-08-19T05:03:45;13.23;;;11.40;;
23163;SDS011;31429;42.674;23.350;2022-08-19T05:05:08;14.63;;;12.27;;
23163;SDS011;31429;42.674;23.350;2022-08-19T05:06:36;13.70;;;12.27;;
23163;SDS011;31429;42.674;23.350;2022-08-19T05:07:38;15.77;;;12.83;;
23163;SDS011;31429;42.674;23.350;2022-08-19T05:08:41;14.87;;;12.53;;
23163;SDS011;31429;42.674;23.350;2022-08-19T05:10:04;14.37;;;11.67;;
23163;SDS011;31429;42.674;23.350;2022-08-19T07:52:24;12.10;;;9.20;;
23163;SDS011;31429;42.674;23.350;2022-08-19T08:03:33;13.27;;;9.77;;
23163;SDS011;31429;42.674;23.350;2022-08-19T08:11:38;11.80;;;8.65;;
23163;SDS011;31429;42.674;23.350;2022-08-19T08:12:39;12.32;;;9.05;;
23163;SDS011;31429;42.674;23.350;2022-08-19T08:13:41;11.30;;;8.60;;
23163;SDS011;31429;42.674;23.350;2022-08-19T08:17:09;10.57;;;8.77;;
23163;SDS011;31429;42.674;23.350;2022-08-19T08:18:45;12.10;;;9.00;;
23163;SDS011;31429;42.674;23.350;2022-08-19T08:19:54;10.23;;;8.82;;
23163;SDS011;31429;42.674;23.350;2022-08-19T08:45:11;10.18;;;8.13;;
23163;SDS011;31429;42.674;23.350;2022-08-19T08:46:53;13.65;;;8.40;;
23163;SDS011;31429;42.674;23.350;2022-08-19T08:47:58;10.05;;;8.70;;
23163;SDS011;31429;42.674;23.350;2022-08-19T08:49:05;15.77;;;8.50;;
23163;SDS011;31429;42.674;23.350;2022-08-19T08:50:12;13.45;;;7.93;;
23163;SDS011;31429;42.674;23.350;2022-08-19T08:51:24;17.13;;;9.35;;
23163;SDS011;31429;42.674;23.350;2022-08-19T08:52:29;12.93;;;8.48;;
23163;SDS011;31429;42.674;23.350;2022-08-19T08:53:35;16.88;;;9.07;;
23163;SDS011;31429;42.674;23.350;2022-08-19T08:54:37;11.82;;;7.47;;
23163;SDS011;31429;42.674;23.350;2022-08-19T08:55:42;12.93;;;7.60;;
23163;SDS011;31429;42.674;23.350;2022-08-19T08:56:45;21.08;;;9.57;;
23163;SDS011;31429;42.674;23.350;2022-08-19T08:57:50;10.20;;;6.97;;
23163;SDS011;31429;42.674;23.350;2022-08-19T08:58:56;6.88;;;6.28;;
23163;SDS011;31429;42.674;23.350;2022-08-19T09:00:00;27.15;;;9.63;;
23163;SDS011;31429;42.674;23.350;2022-08-19T09:01:07;11.43;;;7.22;;
23163;SDS011;31429;42.674;23.350;2022-08-19T09:02:10;10.40;;;7.07;;
23163;SDS011;31429;42.674;23.350;2022-08-19T09:03:14;10.10;;;6.93;;
23163;SDS011;31429;42.674;23.350;2022-08-19T09:04:19;9.82;;;6.90;;
23163;SDS011;31429;42.674;23.350;2022-08-19T09:05:20;21.77;;;15.80;;
23163;SDS011;31429;42.674;23.350;2022-08-19T09:06:24;14.88;;;8.65;;
23163;SDS011;31429;42.674;23.350;2022-08-19T09:07:32;15.02;;;7.65;;
23163;SDS011;31429;42.674;23.350;2022-08-19T09:08:45;11.20;;;7.13;;
23163;SDS011;31429;42.674;23.350;2022-08-19T09:09:55;11.35;;;6.53;;
23163;SDS011;31429;42.674;23.350;2022-08-19T09:11:31;7.97;;;6.60;;
23163;SDS011;31429;42.674;23.350;2022-08-19T09:12:59;9.13;;;6.70;;
23163;SDS011;31429;42.674;23.350;2022-08-19T09:14:14;8.73;;;6.63;;
23163;SDS011;31429;42.674;23.350;2022-08-19T09:15:25;8.82;;;6.65;;
23163;SDS011;31429;42.674;23.350;2022-08-19T09:22:57;7.60;;;5.60;;
23163;SDS011;31429;42.674;23.350;2022-08-19T09:24:09;10.02;;;5.82;;
23163;SDS011;31429;42.674;23.350;2022-08-19T09:26:42;11.20;;;6.53;;
23163;SDS011;31429;42.674;23.350;2022-08-19T09:27:46;7.57;;;5.75;;
23163;SDS011;31429;42.674;23.350;2022-08-19T09:28:48;9.40;;;6.53;;
23163;SDS011;31429;42.674;23.350;2022-08-19T09:31:06;6.85;;;6.25;;
23163;SDS011;31429;42.674;23.350;2022-08-19T09:40:53;7.53;;;6.28;;
23163;SDS011;31429;42.674;23.350;2022-08-19T09:42:01;8.45;;;5.70;;
23163;SDS011;31429;42.674;23.350;2022-08-19T09:43:31;8.45;;;6.00;;
23163;SDS011;31429;42.674;23.350;2022-08-19T10:17:17;8.38;;;5.72;;
23163;SDS011;31429;42.674;23.350;2022-08-19T10:18:57;5.95;;;5.45;;
23163;SDS011;31429;42.674;23.350;2022-08-19T10:19:57;8.45;;;5.82;;
23163;SDS011;31429;42.674;23.350;2022-08-19T10:21:03;6.28;;;5.35;;
23163;SDS011;31429;42.674;23.350;2022-08-19T10:22:08;6.50;;;5.72;;
23163;SDS011;31429;42.674;23.350;2022-08-19T10:23:11;6.40;;;5.00;;
23163;SDS011;31429;42.674;23.350;2022-08-19T10:24:12;7.25;;;5.18;;
23163;SDS011;31429;42.674;23.350;2022-08-19T10:25:12;6.43;;;5.55;;
23163;SDS011;31429;42.674;23.350;2022-08-19T10:26:15;5.85;;;5.35;;
23163;SDS011;31429;42.674;23.350;2022-08-19T10:27:17;6.03;;;5.20;;
23163;SDS011;31429;42.674;23.350;2022-08-19T10:28:18;7.25;;;5.45;;
23163;SDS011;31429;42.674;23.350;2022-08-19T10:29:19;7.68;;;5.85;;
23163;SDS011;31429;42.674;23.350;2022-08-19T10:30:19;6.90;;;5.13;;
23163;SDS011;31429;42.674;23.350;2022-08-19T10:31:21;5.43;;;5.03;;
23163;SDS011;31429;42.674;23.350;2022-08-19T10:32:25;7.50;;;5.30;;
23163;SDS011;31429;42.674;23.350;2022-08-19T10:33:26;6.75;;;5.90;;
23163;SDS011;31429;42.674;23.350;2022-08-19T10:34:28;9.52;;;5.72;;
23163;SDS011;31429;42.674;23.350;2022-08-19T10:35:29;6.10;;;5.50;;
23163;SDS011;31429;42.674;23.350;2022-08-19T10:36:31;6.88;;;5.70;;
23163;SDS011;31429;42.674;23.350;2022-08-19T10:37:35;6.25;;;5.65;;
23163;SDS011;31429;42.674;23.350;2022-08-19T10:38:37;6.10;;;5.50;;
23163;SDS011;31429;42.674;23.350;2022-08-19T10:39:38;8.90;;;5.45;;
23163;SDS011;31429;42.674;23.350;2022-08-19T10:40:38;7.35;;;6.13;;
23163;SDS011;31429;42.674;23.350;2022-08-19T10:41:40;6.50;;;5.88;;
23163;SDS011;31429;42.674;23.350;2022-08-19T10:42:42;9.63;;;5.47;;
23163;SDS011;31429;42.674;23.350;2022-08-19T10:43:44;5.70;;;5.20;;
23163;SDS011;31429;42.674;23.350;2022-08-19T10:44:45;9.82;;;5.65;;
23163;SDS011;31429;42.674;23.350;2022-08-19T10:45:52;8.82;;;5.22;;
23163;SDS011;31429;42.674;23.350;2022-08-19T10:46:58;6.43;;;5.82;;
23163;SDS011;31429;42.674;23.350;2022-08-19T10:48:00;10.02;;;5.82;;
23163;SDS011;31429;42.674;23.350;2022-08-19T10:49:02;8.10;;;5.65;;
23163;SDS011;31429;42.674;23.350;2022-08-19T10:50:05;5.85;;;5.38;;
23163;SDS011;31429;42.674;23.350;2022-08-19T10:51:25;6.72;;;6.00;;
23163;SDS011;31429;42.674;23.350;2022-08-19T10:52:45;6.38;;;5.65;;
23163;SDS011;31429;42.674;23.350;2022-08-19T10:53:48;5.65;;;5.03;;
23163;SDS011;31429;42.674;23.350;2022-08-19T10:54:48;6.40;;;5.53;;
23163;SDS011;31429;42.674;23.350;2022-08-19T10:56:07;7.60;;;5.18;;
23163;SDS011;31429;42.674;23.350;2022-08-19T10:57:29;6.40;;;5.80;;
23163;SDS011;31429;42.674;23.350;2022-08-19T10:58:30;5.90;;;5.40;;
23163;SDS011;31429;42.674;23.350;2022-08-19T10:59:31;5.80;;;5.25;;
23163;SDS011;31429;42.674;23.350;2022-08-19T11:00:32;5.78;;;5.22;;
23163;SDS011;31429;42.674;23.350;2022-08-19T11:01:33;9.23;;;5.20;;
23163;SDS011;31429;42.674;23.350;2022-08-19T11:02:35;7.53;;;5.75;;
23163;SDS011;31429;42.674;23.350;2022-08-19T11:03:37;6.30;;;5.68;;
23163;SDS011;31429;42.674;23.350;2022-08-19T11:04:38;10.35;;;6.05;;
23163;SDS011;31429;42.674;23.350;2022-08-19T11:05:39;8.40;;;5.28;;
23163;SDS011;31429;42.674;23.350;2022-08-19T11:06:41;6.75;;;6.07;;
23163;SDS011;31429;42.674;23.350;2022-08-19T11:07:43;6.90;;;6.10;;
23163;SDS011;31429;42.674;23.350;2022-08-19T11:08:44;6.68;;;5.72;;
23163;SDS011;31429;42.674;23.350;2022-08-19T11:09:45;7.47;;;6.10;;
23163;SDS011;31429;42.674;23.350;2022-08-19T11:12:07;6.10;;;5.30;;
23163;SDS011;31429;42.674;23.350;2022-08-19T11:13:09;11.90;;;5.60;;
23163;SDS011;31429;42.674;23.350;2022-08-19T11:14:10;17.50;;;7.93;;
23163;SDS011;31429;42.674;23.350;2022-08-19T11:15:13;6.60;;;5.93;;
23163;SDS011;31429;42.674;23.350;2022-08-19T11:16:15;6.60;;;5.90;;
23163;SDS011;31429;42.674;23.350;2022-08-19T11:17:17;6.53;;;5.85;;
23163;SDS011;31429;42.674;23.350;2022-08-19T11:18:18;6.82;;;6.10;;
23163;SDS011;31429;42.674;23.350;2022-08-19T11:19:21;7.47;;;6.00;;
23163;SDS011;31429;42.674;23.350;2022-08-19T11:20:23;7.20;;;6.00;;
23163;SDS011;31429;42.674;23.350;2022-08-19T11:21:25;7.68;;;6.95;;
23163;SDS011;31429;42.674;23.350;2022-08-19T11:22:27;8.57;;;5.68;;
23163;SDS011;31429;42.674;23.350;2022-08-19T11:23:28;6.82;;;6.10;;
23163;SDS011;31429;42.674;23.350;2022-08-19T11:24:29;6.65;;;6.05;;
23163;SDS011;31429;42.674;23.350;2022-08-19T11:25:30;7.43;;;6.05;;
23163;SDS011;31429;42.674;23.350;2022-08-19T11:26:31;7.05;;;6.20;;
23163;SDS011;31429;42.674;23.350;2022-08-19T11:27:32;6.80;;;6.03;;
23163;SDS011;31429;42.674;23.350;2022-08-19T11:28:33;9.88;;;6.13;;
23163;SDS011;31429;42.674;23.350;2022-08-19T11:29:34;7.25;;;5.78;;
23163;SDS011;31429;42.674;23.350;2022-08-19T11:30:36;7.95;;;5.60;;
23163;SDS011;31429;42.674;23.350;2022-08-19T11:31:38;7.35;;;6.35;;
23163;SDS011;31429;42.674;23.350;2022-08-19T11:32:40;8.98;;;6.05;;
23163;SDS011;31429;42.674;23.350;2022-08-19T11:33:41;9.15;;;6.35;;
23163;SDS011;31429;42.674;23.350;2022-08-19T11:34:44;8.35;;;6.20;;
23163;SDS011;31429;42.674;23.350;2022-08-19T11:35:45;6.90;;;5.80;;
23163;SDS011;31429;42.674;23.350;2022-08-19T11:36:46;11.82;;;6.30;;
23163;SDS011;31429;42.674;23.350;2022-08-19T11:37:47;7.20;;;6.50;;
23163;SDS011;31429;42.674;23.350;2022-08-19T11:38:48;7.00;;;6.00;;
23163;SDS011;31429;42.674;23.350;2022-08-19T11:39:50;6.72;;;6.00;;
23163;SDS011;31429;42.674;23.350;2022-08-19T11:40:54;8.00;;;6.47;;
23163;SDS011;31429;42.674;23.350;2022-08-19T11:41:55;7.55;;;6.68;;
23163;SDS011;31429;42.674;23.350;2022-08-19T11:42:58;7.07;;;6.40;;
23163;SDS011;31429;42.674;23.350;2022-08-19T11:43:59;7.32;;;6.68;;
23163;SDS011;31429;42.674;23.350;2022-08-19T11:45:00;6.20;;;5.70;;
23163;SDS011;31429;42.674;23.350;2022-08-19T11:46:03;7.53;;;6.53;;
23163;SDS011;31429;42.674;23.350;2022-08-19T11:47:06;8.20;;;5.93;;
23163;SDS011;31429;42.674;23.350;2022-08-19T11:48:07;6.88;;;6.28;;
23163;SDS011;31429;42.674;23.350;2022-08-19T11:49:08;7.85;;;6.00;;
23163;SDS011;31429;42.674;23.350;2022-08-19T11:50:10;9.07;;;6.65;;
23163;SDS011;31429;42.674;23.350;2022-08-19T11:51:12;11.52;;;6.10;;
23163;SDS011;31429;42.674;23.350;2022-08-19T11:52:15;7.03;;;6.35;;
23163;SDS011;31429;42.674;23.350;2022-08-19T11:53:16;7.90;;;6.38;;
23163;SDS011;31429;42.674;23.350;2022-08-19T11:54:18;7.10;;;6.40;;
23163;SDS011;31429;42.674;23.350;2022-08-19T11:55:19;8.10;;;6.43;;
23163;SDS011;31429;42.674;23.350;2022-08-19T11:56:19;6.53;;;5.90;;
23163;SDS011;31429;42.674;23.350;2022-08-19T11:57:21;6.75;;;6.15;;
23163;SDS011;31429;42.674;23.350;2022-08-19T11:58:22;9.20;;;6.43;;
23163;SDS011;31429;42.674;23.350;2022-08-19T11:59:23;9.55;;;6.68;;
23163;SDS011;31429;42.674;23.350;2022-08-19T12:00:23;10.80;;;6.80;;
23163;SDS011;31429;42.674;23.350;2022-08-19T12:01:25;7.00;;;6.38;;
23163;SDS011;31429;42.674;23.350;2022-08-19T12:02:26;7.40;;;6.60;;
23163;SDS011;31429;42.674;23.350;2022-08-19T12:03:26;9.55;;;6.18;;
23163;SDS011;31429;42.674;23.350;2022-08-19T12:04:28;8.93;;;5.95;;
23163;SDS011;31429;42.674;23.350;2022-08-19T12:05:30;9.25;;;6.53;;
23163;SDS011;31429;42.674;23.350;2022-08-19T12:06:31;8.70;;;7.00;;
23163;SDS011;31429;42.674;23.350;2022-08-19T12:07:34;7.13;;;6.13;;
23163;SDS011;31429;42.674;23.350;2022-08-19T12:08:34;7.30;;;6.15;;
23163;SDS011;31429;42.674;23.350;2022-08-19T12:09:35;8.82;;;6.22;;
23163;SDS011;31429;42.674;23.350;2022-08-19T12:10:36;8.88;;;6.45;;
23163;SDS011;31429;42.674;23.350;2022-08-19T12:11:37;7.18;;;6.30;;
23163;SDS011;31429;42.674;23.350;2022-08-19T12:12:38;7.85;;;6.20;;
23163;SDS011;31429;42.674;23.350;2022-08-19T12:13:42;6.72;;;6.15;;
23163;SDS011;31429;42.674;23.350;2022-08-19T12:14:45;7.78;;;6.78;;
23163;SDS011;31429;42.674;23.350;2022-08-19T12:15:47;8.02;;;6.65;;
23163;SDS011;31429;42.674;23.350;2022-08-19T12:16:48;7.40;;;6.28;;
23163;SDS011;31429;42.674;23.350;2022-08-19T12:17:48;8.20;;;6.22;;
23163;SDS011;31429;42.674;23.350;2022-08-19T12:18:49;9.13;;;6.50;;
23163;SDS011;31429;42.674;23.350;2022-08-19T12:19:51;7.43;;;6.72;;
23163;SDS011;31429;42.674;23.350;2022-08-19T12:20:53;7.78;;;6.00;;
23163;SDS011;31429;42.674;23.350;2022-08-19T12:21:58;6.78;;;6.13;;
23163;SDS011;31429;42.674;23.350;2022-08-19T12:23:01;10.93;;;6.68;;
23163;SDS011;31429;42.674;23.350;2022-08-19T12:24:03;10.38;;;6.53;;
23163;SDS011;31429;42.674;23.350;2022-08-19T12:25:05;6.88;;;6.30;;
23163;SDS011;31429;42.674;23.350;2022-08-19T12:26:09;10.90;;;7.07;;
23163;SDS011;31429;42.674;23.350;2022-08-19T12:27:11;7.03;;;6.38;;
23163;SDS011;31429;42.674;23.350;2022-08-19T12:28:12;7.38;;;6.68;;
23163;SDS011;31429;42.674;23.350;2022-08-19T12:29:13;14.07;;;6.85;;
23163;SDS011;31429;42.674;23.350;2022-08-19T12:30:14;9.48;;;6.57;;
23163;SDS011;31429;42.674;23.350;2022-08-19T12:31:15;12.50;;;6.72;;
23163;SDS011;31429;42.674;23.350;2022-08-19T12:32:17;6.75;;;5.93;;
23163;SDS011;31429;42.674;23.350;2022-08-19T12:33:18;12.13;;;6.68;;
23163;SDS011;31429;42.674;23.350;2022-08-19T12:34:23;7.68;;;6.55;;
23163;SDS011;31429;42.674;23.350;2022-08-19T12:35:24;8.68;;;6.50;;
23163;SDS011;31429;42.674;23.350;2022-08-19T12:36:26;7.15;;;6.45;;
23163;SDS011;31429;42.674;23.350;2022-08-19T12:37:27;7.15;;;6.50;;
23163;SDS011;31429;42.674;23.350;2022-08-19T12:38:28;7.28;;;6.63;;
23163;SDS011;31429;42.674;23.350;2022-08-19T12:39:29;7.43;;;6.80;;
23163;SDS011;31429;42.674;23.350;2022-08-19T12:40:31;8.13;;;7.00;;
23163;SDS011;31429;42.674;23.350;2022-08-19T12:41:31;9.13;;;6.35;;
23163;SDS011;31429;42.674;23.350;2022-08-19T12:42:32;7.65;;;5.85;;
23163;SDS011;31429;42.674;23.350;2022-08-19T12:43:33;8.27;;;6.25;;
23163;SDS011;31429;42.674;23.350;2022-08-19T12:44:35;10.90;;;6.38;;
23163;SDS011;31429;42.674;23.350;2022-08-19T12:45:36;10.20;;;6.88;;
23163;SDS011;31429;42.674;23.350;2022-08-19T12:46:37;7.63;;;6.93;;
23163;SDS011;31429;42.674;23.350;2022-08-19T12:47:38;7.60;;;6.28;;
23163;SDS011;31429;42.674;23.350;2022-08-19T12:48:39;7.93;;;7.22;;
23163;SDS011;31429;42.674;23.350;2022-08-19T12:49:42;7.40;;;6.70;;
23163;SDS011;31429;42.674;23.350;2022-08-19T12:50:44;10.05;;;5.93;;
23163;SDS011;31429;42.674;23.350;2022-08-19T12:51:47;10.20;;;6.60;;
23163;SDS011;31429;42.674;23.350;2022-08-19T12:52:47;7.03;;;6.32;;
23163;SDS011;31429;42.674;23.350;2022-08-19T12:53:48;7.82;;;6.60;;
23163;SDS011;31429;42.674;23.350;2022-08-19T12:54:50;10.02;;;6.45;;
23163;SDS011;31429;42.674;23.350;2022-08-19T12:55:54;6.78;;;6.18;;
23163;SDS011;31429;42.674;23.350;2022-08-19T12:56:56;10.18;;;6.97;;
23163;SDS011;31429;42.674;23.350;2022-08-19T12:57:57;6.90;;;6.30;;
23163;SDS011;31429;42.674;23.350;2022-08-19T12:59:00;9.70;;;6.35;;
23163;SDS011;31429;42.674;23.350;2022-08-19T13:00:03;7.45;;;6.55;;
23163;SDS011;31429;42.674;23.350;2022-08-19T13:01:10;9.02;;;6.70;;
23163;SDS011;31429;42.674;23.350;2022-08-19T13:02:12;11.02;;;7.53;;
23163;SDS011;31429;42.674;23.350;2022-08-19T13:03:12;8.07;;;6.25;;
23163;SDS011;31429;42.674;23.350;2022-08-19T13:04:13;7.05;;;6.35;;
23163;SDS011;31429;42.674;23.350;2022-08-19T13:05:15;8.15;;;6.60;;
23163;SDS011;31429;42.674;23.350;2022-08-19T13:06:17;9.82;;;6.35;;
23163;SDS011;31429;42.674;23.350;2022-08-19T13:07:19;7.88;;;7.05;;
23163;SDS011;31429;42.674;23.350;2022-08-19T13:08:20;7.18;;;5.90;;
23163;SDS011;31429;42.674;23.350;2022-08-19T13:09:20;6.43;;;5.57;;
23163;SDS011;31429;42.674;23.350;2022-08-19T13:10:22;8.00;;;6.30;;
23163;SDS011;31429;42.674;23.350;2022-08-19T13:11:24;6.75;;;6.15;;
23163;SDS011;31429;42.674;23.350;2022-08-19T13:12:25;12.23;;;7.10;;
23163;SDS011;31429;42.674;23.350;2022-08-19T13:13:26;7.25;;;6.50;;
23163;SDS011;31429;42.674;23.350;2022-08-19T13:14:27;9.68;;;6.15;;
23163;SDS011;31429;42.674;23.350;2022-08-19T13:15:32;6.78;;;6.13;;
23163;SDS011;31429;42.674;23.350;2022-08-19T13:16:34;9.60;;;6.75;;
23163;SDS011;31429;42.674;23.350;2022-08-19T13:17:36;7.57;;;6.63;;
23163;SDS011;31429;42.674;23.350;2022-08-19T13:18:38;8.75;;;6.20;;
23163;SDS011;31429;42.674;23.350;2022-08-19T13:19:40;7.97;;;7.10;;
23163;SDS011;31429;42.674;23.350;2022-08-19T13:20:41;8.73;;;6.53;;
23163;SDS011;31429;42.674;23.350;2022-08-19T13:21:42;6.85;;;6.25;;
23163;SDS011;31429;42.674;23.350;2022-08-19T13:22:44;11.00;;;6.53;;
23163;SDS011;31429;42.674;23.350;2022-08-19T13:23:45;8.07;;;7.32;;
23163;SDS011;31429;42.674;23.350;2022-08-19T13:24:46;9.77;;;6.82;;
23163;SDS011;31429;42.674;23.350;2022-08-19T13:25:55;8.35;;;6.78;;
23163;SDS011;31429;42.674;23.350;2022-08-19T13:26:56;9.02;;;6.15;;
23163;SDS011;31429;42.674;23.350;2022-08-19T13:27:57;7.97;;;7.07;;
23163;SDS011;31429;42.674;23.350;2022-08-19T13:28:59;11.18;;;6.68;;
23163;SDS011;31429;42.674;23.350;2022-08-19T13:30:19;7.25;;;6.53;;
23163;SDS011;31429;42.674;23.350;2022-08-19T13:31:39;8.15;;;6.50;;
23163;SDS011;31429;42.674;23.350;2022-08-19T13:32:59;6.65;;;6.15;;
23163;SDS011;31429;42.674;23.350;2022-08-19T13:34:14;9.95;;;6.75;;
23163;SDS011;31429;42.674;23.350;2022-08-19T13:35:16;6.97;;;6.35;;
23163;SDS011;31429;42.674;23.350;2022-08-19T13:36:17;9.15;;;7.03;;
23163;SDS011;31429;42.674;23.350;2022-08-19T13:37:17;9.00;;;6.43;;
23163;SDS011;31429;42.674;23.350;2022-08-19T13:38:39;11.40;;;7.50;;
23163;SDS011;31429;42.674;23.350;2022-08-19T13:39:40;11.45;;;7.28;;
23163;SDS011;31429;42.674;23.350;2022-08-19T13:40:41;9.18;;;6.70;;
23163;SDS011;31429;42.674;23.350;2022-08-19T13:41:43;7.25;;;6.47;;
23163;SDS011;31429;42.674;23.350;2022-08-19T13:42:49;6.80;;;6.10;;
23163;SDS011;31429;42.674;23.350;2022-08-19T13:43:51;10.30;;;6.55;;
23163;SDS011;31429;42.674;23.350;2022-08-19T13:44:53;8.73;;;6.50;;
23163;SDS011;31429;42.674;23.350;2022-08-19T13:45:54;10.55;;;7.00;;
23163;SDS011;31429;42.674;23.350;2022-08-19T13:47:00;6.90;;;6.20;;
23163;SDS011;31429;42.674;23.350;2022-08-19T13:48:04;7.57;;;6.20;;
23163;SDS011;31429;42.674;23.350;2022-08-19T13:49:06;10.27;;;7.00;;
23163;SDS011;31429;42.674;23.350;2022-08-19T13:50:09;9.40;;;7.05;;
23163;SDS011;31429;42.674;23.350;2022-08-19T13:51:11;8.18;;;7.10;;
23163;SDS011;31429;42.674;23.350;2022-08-19T13:52:11;7.80;;;6.70;;
23163;SDS011;31429;42.674;23.350;2022-08-19T13:53:12;10.65;;;6.63;;
23163;SDS011;31429;42.674;23.350;2022-08-19T13:54:14;10.02;;;6.47;;
23163;SDS011;31429;42.674;23.350;2022-08-19T13:55:15;8.25;;;6.60;;
23163;SDS011;31429;42.674;23.350;2022-08-19T13:56:17;7.97;;;7.18;;
23163;SDS011;31429;42.674;23.350;2022-08-19T13:57:19;12.70;;;7.47;;
23163;SDS011;31429;42.674;23.350;2022-08-19T13:58:20;10.50;;;6.72;;
23163;SDS011;31429;42.674;23.350;2022-08-19T13:59:22;7.00;;;6.32;;
23163;SDS011;31429;42.674;23.350;2022-08-19T14:00:23;7.18;;;6.57;;
23163;SDS011;31429;42.674;23.350;2022-08-19T14:01:26;10.70;;;6.70;;
23163;SDS011;31429;42.674;23.350;2022-08-19T14:02:27;9.75;;;7.30;;
23163;SDS011;31429;42.674;23.350;2022-08-19T14:03:28;8.10;;;6.85;;
23163;SDS011;31429;42.674;23.350;2022-08-19T14:04:29;8.18;;;6.85;;
23163;SDS011;31429;42.674;23.350;2022-08-19T14:05:30;8.27;;;7.45;;
23163;SDS011;31429;42.674;23.350;2022-08-19T14:06:32;7.88;;;6.88;;
23163;SDS011;31429;42.674;23.350;2022-08-19T14:07:33;10.70;;;7.53;;
23163;SDS011;31429;42.674;23.350;2022-08-19T14:08:33;7.72;;;7.00;;
23163;SDS011;31429;42.674;23.350;2022-08-19T14:09:36;7.63;;;6.93;;
23163;SDS011;31429;42.674;23.350;2022-08-19T14:10:37;11.35;;;7.30;;
23163;SDS011;31429;42.674;23.350;2022-08-19T14:12:02;11.25;;;7.65;;
23163;SDS011;31429;42.674;23.350;2022-08-19T14:20:09;8.52;;;7.53;;
23163;SDS011;31429;42.674;23.350;2022-08-19T14:21:30;10.63;;;7.57;;
23163;SDS011;31429;42.674;23.350;2022-08-19T14:22:30;8.25;;;6.53;;
23163;SDS011;31429;42.674;23.350;2022-08-19T14:23:31;7.68;;;6.95;;
23163;SDS011;31429;42.674;23.350;2022-08-19T14:24:32;8.75;;;6.72;;
23163;SDS011;31429;42.674;23.350;2022-08-19T14:25:34;12.40;;;7.00;;
23163;SDS011;31429;42.674;23.350;2022-08-19T14:26:35;11.38;;;7.00;;
23163;SDS011;31429;42.674;23.350;2022-08-19T14:27:37;12.57;;;6.97;;
23163;SDS011;31429;42.674;23.350;2022-08-19T14:28:39;7.70;;;6.72;;
23163;SDS011;31429;42.674;23.350;2022-08-19T14:29:41;9.90;;;6.90;;